Race Coverage Navigation

TS # 25 / Greensburg, KS  2019

 


TS STATS
TS Distance 66.12 
Total Distance 1511.1 
Miles To Go 1559.18 
TS Climbing 1461 
Total Climbing
TS  Elevation
TS  Net Elevation 2316 
Map Filename Open Map 
Directions Filename  
Latitude 37.61 
Longitude -99.29 
Google Map  TimeStation Map 


TS Arrival Data
Arr Ord  #/Name Arrival DT TS Dst Avg This TS Avg Overall
 1 377 - Christoph Strasser  06/15/2019 9:38 66.12  17.71  16.98 
 2 279 - Marko Baloh  06/15/2019 20:05 66.12  16.81  15.19 
 3 288 - Dave Haase  06/15/2019 23:51 66.12  16.53  14.64 
 4 609 - Jakob Olsen  06/16/2019 1:32 66.12  11.88  14.37 
 5 617 - SOLO.kiwi (Craig Harper)  06/16/2019 8:17 66.12  7.53  13.49 
 6 529 - Isa Pulver  06/16/2019 8:31 66.12  10.25  13.44 
 7 612 - Markus K. Brandl  06/16/2019 10:35 66.12  12.96  13.22 
 8 622 - Thomas Odom-Team Kyle Pease Foundation  06/16/2019 15:01 66.12  15.03  12.71 
 9 329 - Peter Oyler  06/16/2019 15:02 66.12  18.98  12.76 
 10 416 - Leah Goldstein  06/16/2019 17:07 66.12  17.32  12.49 
 11 623 - Ultra Paka Racing Team (Daniel Polman)  06/16/2019 18:23 66.12  15.14  12.36 
 12 367 - Daniela Genovesi  06/16/2019 19:20 66.12  17.03  12.26 
 13 603 - Alan Bradley  06/16/2019 23:08 66.12  9.36  11.92 
 14 604 - Chieko Ozawa  06/17/2019 0:35 66.12  14.07  11.76 
 15 568 - Alexandra Meixner  06/17/2019 0:49 66.12  13.68  11.74 
 16 615 - Philipp Amhof  06/17/2019 1:19 66.12  9.38  11.71 
 17 611 - Marcelo Soares " MIXIRICA "  06/17/2019 3:28 66.12  12.02  11.52 
 18 442 - Joe Barr  06/17/2019 5:23 66.12  9.23  11.37 
 19 510 - John C. Tarlton  06/17/2019 7:05 66.12  11.43  11.23 
 20 559 - Team Martin RAAM 2019 (Martin Bergmeister)  06/17/2019 7:24 66.12  7.19  11.2 
 21 411 - Geoff Brunner  06/17/2019 8:19 66.12  7.49  11.13 
 22 610 - Kabir Rachure  06/17/2019 11:04 66.12  9.89  10.89 
 23 603 - Alan Bradley  06/17/2019 14:32 66.12  9.36  11.92 
 24 399 - Valerio Zamboni  06/17/2019 15:53 66.12  13.63  10.54 
 25 618 - GREGORY ROBINSON  06/17/2019 20:19 66.12  12.88  10.2 
 26 424 - Team i RON man Veterans supporting Veterans  06/17/2019 20:37 66.12  9.77  10.2 
 27 539 - Kari Rouvinen  06/17/2019 21:44 66.12  12.72  10.12 
 28 608 - Elin Starup  06/18/2019 2:05 66.12  9.61  9.81 
 29 161 - Seana Hogan  06/18/2019 3:03 66.12  14.02  9.75 
 30 605 - Christian Echavarria  06/18/2019 9:44 66.12  7.19  9.36 
 31 T411 - team alpha - tischlerei groemmer  06/18/2019 10:02 66.12  22.67  22.66 
 32 T800 - Backstedt Racing Project 14  06/18/2019 10:33 66.12  23.34  22.53 
 33 T401 - Data Techniques powered by Networks Centre  06/18/2019 13:33 66.12  23.07  21.47 
 34 T404 - Gentlemen of speed  06/18/2019 13:49 66.12  23.07  21.41 
 35 T201 - EAT WELL  06/18/2019 17:46 66.12  23.2  20.22 
 36 T805 - Team Oceanside  06/18/2019 17:57 66.12  24.19  20.32 
 37 T807 - Team ZOE International  06/18/2019 18:55 66.12  25.27  20.06 
 38 T407 - Julian Becker   06/18/2019 19:03 66.12  23.47  19.94 
 39 T802 - Scorchers  06/18/2019 20:43 66.12  21.33  19.57 
 40 T412 - Team Aspect  06/18/2019 21:14 66.12  18.98  19.41 
 41 T416 - Team Rotary Raams Polio  06/18/2019 21:30 66.12  20.77  19.36 
 42 T804 - Team FSHD Skyland Trail  06/18/2019 22:26 66.12  20.99  19.16 
 43 T408 - Radeln-fuer-Kinder (Cycling-for-Kids)  06/18/2019 22:43 66.12  18.98  19.03 
 44 T400 - Cantastic4  06/18/2019 23:51 66.12  19.64  18.73 
 45 T406 - Operation Walk Midwest  06/19/2019 0:16 66.12  19.54  18.66 
 46 T808 - Antonia's Friends 2019  06/19/2019 0:43 66.12  18.89  18.63 
 47 T418 - The Opportunists  06/19/2019 3:33 66.12  18.03  17.97 
 48 T410 - Soap-Aid  06/19/2019 5:22 66.12  20.04  17.56 
 49 T414 - Brazil Nuts  06/19/2019 6:06 66.12  18.63  17.43 
 50 T202 - Integra Medical - BAA Racing  06/19/2019 7:30 66.12  18.98  17.08 
 51 T405 - High Rollers  06/19/2019 7:34 66.12  19.84  17.11 
 52 T803 - Team EndoPark  06/19/2019 8:13 66.12  19.64  17.04 
 53 T415 - TEAM FIRE VELO 935  06/19/2019 9:05 66.12  20.77  16.85 
 54 T206 - Project Linear Acceleration  06/19/2019 9:11 66.12  18.37  16.77 
 55 T403 - EKJ Denmark  06/19/2019 9:27 66.12  15.56  16.75 
 56 T204 - Lucan CRC  06/19/2019 10:16 66.12  18.12  16.57 
 57 T413 - TEAM BRASIL - SKIPPER  06/19/2019 11:20 66.12  19.94  16.43 
 58 T402 - EA/WFP RAAM Team  06/19/2019 11:48 66.12  19.26  16.32 
 59 T806 - Team SuperMarrow  06/19/2019 11:57 66.12  19.84  16.36 
 60 T801 - Mind Over Matter  06/19/2019 13:10 66.12  18.8  16.13 
 61 T417 - Team4RAAM 2019 powered by TGW Living Logistics  06/19/2019 14:40 66.12  21.21  15.87 
 62 T200 - AIR RELAX GoPro TEAM BRASIL  06/19/2019 16:10 66.12  21.1  15.55 
 63 T207 - Team Life Time  06/19/2019 19:44 66.12  14.37  15.02 
 64 T409 - Serpentine Golden Girls  06/19/2019 21:10 66.12  15.74  14.84 
 65 T203 - JPsDuo  06/19/2019 23:37 66.12  15.44  14.45 
 66 T210 - Bike Wine Team  06/20/2019 4:46 66.12  15.14  13.79 
 67 T205 - Prevent Breast Cancer powered by Endomag  06/20/2019 6:28 66.12  16.74  13.57